Time;durP1;ratioP1;P1;durP2;ratioP2;P2;SDS_P1;SDS_P2;PMS_P1;PMS_P2;Temp;Humidity;BMP_temperature;BMP_pressure;BME280_temperature;BME280_humidity;BME280_pressure;Samples;Min_cycle;Max_cycle;Signal;HPM_P1;HPM_P2
2022/07/25 00:01:17;;;;;;;8.37;7.67;;;29.10;47.00;;;;;;5076294;28;20412;-81
2022/07/25 00:03:46;;;;;;;8.53;7.70;;;29.10;47.00;;;;;;5077213;28;20416;-81
2022/07/25 00:06:12;;;;;;;8.33;7.63;;;29.10;47.10;;;;;;5091076;28;20513;-80
2022/07/25 00:08:38;;;;;;;8.63;7.83;;;29.10;47.10;;;;;;5087538;28;20439;-80
2022/07/25 00:11:05;;;;;;;7.93;7.13;;;29.10;47.10;;;;;;5075403;28;20425;-80
2022/07/25 00:13:35;;;;;;;7.90;7.30;;;29.10;47.10;;;;;;5075211;28;20468;-80
2022/07/25 00:16:02;;;;;;;11.60;7.67;;;29.10;47.10;;;;;;5075877;28;20455;-80
2022/07/25 00:18:28;;;;;;;9.10;8.20;;;29.10;47.10;;;;;;5075104;28;20493;-80
2022/07/25 00:20:55;;;;;;;7.83;7.13;;;29.10;47.10;;;;;;5075047;28;20413;-80
2022/07/25 00:23:21;;;;;;;8.50;7.80;;;29.10;47.10;;;;;;5074780;28;20515;-80
2022/07/25 00:25:48;;;;;;;7.50;6.90;;;29.10;47.10;;;;;;5092935;28;20451;-80
2022/07/25 00:28:14;;;;;;;8.00;7.20;;;29.10;47.10;;;;;;5075017;28;20413;-81
2022/07/25 00:30:43;;;;;;;8.90;8.10;;;29.10;47.10;;;;;;5074803;28;20420;-80
2022/07/25 00:33:10;;;;;;;8.00;7.30;;;29.10;47.10;;;;;;5074885;28;20448;-81
2022/07/25 00:35:36;;;;;;;8.33;7.63;;;29.10;47.10;;;;;;5074295;28;20497;-81
2022/07/25 00:38:07;;;;;;;8.97;8.17;;;29.10;47.10;;;;;;5074260;28;20432;-80
2022/07/25 00:40:35;;;;;;;8.10;7.50;;;29.10;47.10;;;;;;5075222;28;20440;-80
2022/07/25 00:43:01;;;;;;;8.00;7.30;;;29.10;47.10;;;;;;5074536;28;20413;-81
2022/07/25 00:45:28;;;;;;;8.60;7.90;;;29.10;47.10;;;;;;5074500;28;20456;-81
2022/07/25 00:47:59;;;;;;;8.50;7.80;;;29.10;47.20;;;;;;5077975;28;20472;-81
2022/07/25 00:50:30;;;;;;;8.03;7.43;;;29.10;47.20;;;;;;5097221;28;20401;-82
2022/07/25 00:52:58;;;;;;;9.40;8.03;;;29.10;47.20;;;;;;5062940;28;20801;-81
2022/07/25 00:55:27;;;;;;;8.97;8.17;;;29.10;47.20;;;;;;5080429;28;20413;-81
2022/07/25 00:58:09;;;;;;;7.70;7.00;;;29.10;47.20;;;;;;5080387;28;20488;-82
2022/07/25 01:00:42;;;;;;;8.17;7.47;;;29.10;47.20;;;;;;5081558;28;20708;-82
2022/07/25 01:03:12;;;;;;;8.53;7.73;;;29.00;47.20;;;;;;5076173;28;20452;-82
2022/07/25 01:05:41;;;;;;;8.40;7.60;;;29.10;47.20;;;;;;5079802;28;20921;-81
2022/07/25 01:08:09;;;;;;;8.27;7.57;;;29.10;47.20;;;;;;5063287;28;20435;-81
2022/07/25 01:10:38;;;;;;;8.30;7.60;;;29.00;47.20;;;;;;5079654;28;20408;-81
2022/07/25 01:13:07;;;;;;;9.43;8.57;;;29.10;47.20;;;;;;5080461;28;20420;-82
2022/07/25 01:15:37;;;;;;;9.53;8.63;;;29.00;47.20;;;;;;5097859;28;20397;-81
2022/07/25 01:18:08;;;;;;;8.23;7.63;;;29.00;47.20;;;;;;5079774;28;20495;-81
2022/07/25 01:20:41;;;;;;;8.80;8.00;;;29.00;47.20;;;;;;5080187;28;20412;-81
2022/07/25 01:23:24;;;;;;;9.07;8.33;;;29.00;47.20;;;;;;5097852;28;20389;-81
2022/07/25 01:26:03;;;;;;;8.60;7.90;;;29.00;47.20;;;;;;5097109;28;20455;-81
2022/07/25 01:28:31;;;;;;;8.57;7.97;;;29.00;47.20;;;;;;5063068;28;20409;-81
2022/07/25 01:31:06;;;;;;;8.17;7.47;;;29.00;47.20;;;;;;5079211;28;20484;-81
2022/07/25 01:33:34;;;;;;;9.00;8.20;;;29.00;47.20;;;;;;5061733;28;20506;-81
2022/07/25 01:36:01;;;;;;;9.70;8.80;;;29.00;47.20;;;;;;5060168;28;20417;-80
2022/07/25 01:38:34;;;;;;;8.73;7.97;;;29.00;47.20;;;;;;5076403;28;20429;-81
2022/07/25 01:41:00;;;;;;;9.13;8.23;;;29.00;47.20;;;;;;5076220;28;20466;-80
2022/07/25 01:43:27;;;;;;;9.40;8.50;;;29.00;47.10;;;;;;5072977;28;20424;-81
2022/07/25 01:45:53;;;;;;;8.60;7.90;;;29.00;47.20;;;;;;5072817;28;20457;-80
2022/07/25 01:48:19;;;;;;;8.60;7.80;;;29.00;47.20;;;;;;5073661;28;20488;-80
2022/07/25 01:50:46;;;;;;;8.27;7.57;;;29.00;47.20;;;;;;5073385;28;20444;-80
2022/07/25 01:53:12;;;;;;;8.77;8.07;;;28.90;47.10;;;;;;5106679;28;20413;-80
2022/07/25 01:55:39;;;;;;;8.70;8.00;;;28.90;47.10;;;;;;5073746;28;20417;-80
2022/07/25 01:58:07;;;;;;;9.43;8.63;;;29.00;47.20;;;;;;5107543;28;20424;-80
2022/07/25 02:00:35;;;;;;;8.20;7.60;;;28.90;47.10;;;;;;5107399;28;20412;-80
2022/07/25 02:05:47;;;;;;;8.73;7.83;;;28.90;47.20;;;;;;5091013;28;20459;-80
2022/07/25 02:08:16;;;;;;;8.60;7.90;;;28.90;47.20;;;;;;5072987;28;20479;-80
2022/07/25 02:10:43;;;;;;;9.27;8.47;;;28.90;47.20;;;;;;5073207;28;20472;-80
2022/07/25 02:16:31;;;;;;;8.93;8.13;;;28.90;47.20;;;;;;5091036;28;20446;-80
2022/07/25 02:18:59;;;;;;;9.50;8.60;;;28.90;47.80;;;;;;5107004;28;20436;-80
2022/07/25 02:21:25;;;;;;;8.50;7.70;;;28.90;47.30;;;;;;5073000;28;20450;-80
2022/07/25 02:23:52;;;;;;;8.73;7.97;;;28.90;47.20;;;;;;5090503;28;20419;-80
2022/07/25 02:26:18;;;;;;;8.67;7.77;;;28.90;47.20;;;;;;5089870;28;20509;-80
2022/07/25 02:28:45;;;;;;;9.00;8.20;;;28.90;47.20;;;;;;5072956;28;20442;-80
2022/07/25 02:31:15;;;;;;;9.30;8.50;;;28.90;47.20;;;;;;5106326;28;20420;-80
2022/07/25 02:33:42;;;;;;;8.90;8.20;;;28.90;47.20;;;;;;5106427;28;20446;-79
2022/07/25 02:36:12;;;;;;;8.43;7.77;;;28.90;47.20;;;;;;5073212;28;20431;-79
2022/07/25 02:38:38;;;;;;;9.63;8.83;;;28.90;47.20;;;;;;5106346;28;20431;-79
2022/07/25 02:41:05;;;;;;;8.40;7.70;;;28.90;47.20;;;;;;5105818;28;20417;-79
2022/07/25 02:43:33;;;;;;;8.50;7.80;;;28.90;47.20;;;;;;5090188;28;20459;-79
2022/07/25 02:46:00;;;;;;;9.33;8.53;;;28.80;47.20;;;;;;5072934;28;20456;-79
2022/07/25 02:48:26;;;;;;;9.23;8.43;;;28.90;47.20;;;;;;5106132;28;20440;-79
2022/07/25 02:50:53;;;;;;;9.67;8.77;;;28.80;47.20;;;;;;5105077;28;20500;-79
2022/07/25 02:53:19;;;;;;;8.60;7.90;;;28.90;47.20;;;;;;5072212;28;20417;-79
2022/07/25 02:55:46;;;;;;;9.10;8.30;;;28.90;47.20;;;;;;5071688;28;20417;-79
2022/07/25 03:01:34;;;;;;;8.50;7.70;;;28.80;47.20;;;;;;5089946;28;20395;-79
2022/07/25 03:04:00;;;;;;;9.90;9.03;;;28.80;47.80;;;;;;5071605;28;20872;-79
2022/07/25 03:06:27;;;;;;;8.83;8.03;;;28.80;47.20;;;;;;5088919;28;20505;-81
2022/07/25 03:08:53;;;;;;;9.40;8.60;;;28.80;47.20;;;;;;5071622;28;20439;-79
2022/07/25 03:11:20;;;;;;;9.60;8.80;;;28.80;47.20;;;;;;5071885;28;20413;-79
2022/07/25 03:13:46;;;;;;;9.60;8.70;;;28.80;47.20;;;;;;5071853;28;20454;-80
2022/07/25 03:16:12;;;;;;;9.80;8.90;;;28.80;47.20;;;;;;5071409;28;20416;-80
2022/07/25 03:18:40;;;;;;;10.27;9.37;;;28.80;47.20;;;;;;5089750;28;20416;-80
2022/07/25 03:21:07;;;;;;;10.17;9.27;;;28.80;47.20;;;;;;5071542;28;20512;-80
2022/07/25 03:23:34;;;;;;;9.60;8.80;;;28.80;47.20;;;;;;5071884;28;20421;-80
2022/07/25 03:26:00;;;;;;;9.93;9.13;;;28.80;47.20;;;;;;5072281;28;20464;-80
2022/07/25 03:28:27;;;;;;;9.27;8.47;;;28.80;47.20;;;;;;5089355;28;20405;-80
2022/07/25 03:30:53;;;;;;;8.33;7.63;;;28.80;47.20;;;;;;5072147;28;20404;-80
2022/07/25 03:33:20;;;;;;;9.63;8.03;;;28.80;47.20;;;;;;5071271;28;20911;-80
2022/07/25 03:35:47;;;;;;;8.70;8.00;;;28.80;47.20;;;;;;5089494;28;20401;-82
2022/07/25 03:38:16;;;;;;;9.20;8.40;;;28.80;47.20;;;;;;5070930;28;20440;-80
2022/07/25 03:40:43;;;;;;;11.83;9.07;;;28.70;47.10;;;;;;5071185;28;20436;-80
2022/07/25 03:43:14;;;;;;;9.53;8.73;;;28.70;47.20;;;;;;5089415;28;20405;-80
2022/07/25 03:45:41;;;;;;;9.87;8.97;;;28.80;47.30;;;;;;5074429;28;20535;-80
2022/07/25 03:48:07;;;;;;;9.87;8.90;;;28.70;47.30;;;;;;5075013;28;20397;-79
2022/07/25 03:50:35;;;;;;;9.40;8.60;;;28.70;47.30;;;;;;5074530;28;20417;-79
2022/07/25 03:53:05;;;;;;;9.40;8.50;;;28.70;47.30;;;;;;5074424;28;20412;-79
2022/07/25 03:55:33;;;;;;;9.47;8.67;;;28.70;47.30;;;;;;5073618;28;20435;-79
2022/07/25 03:58:00;;;;;;;9.37;8.57;;;28.80;47.40;;;;;;5071895;28;20475;-80
2022/07/25 04:00:28;;;;;;;10.23;9.33;;;28.80;47.30;;;;;;5066231;28;20435;-80
2022/07/25 04:02:59;;;;;;;8.87;8.17;;;28.70;47.20;;;;;;5073488;28;20431;-80
2022/07/25 04:05:26;;;;;;;9.80;8.93;;;28.80;47.20;;;;;;5056122;28;20456;-80
2022/07/25 04:07:52;;;;;;;8.80;8.10;;;28.70;47.20;;;;;;5073836;28;20404;-80
2022/07/25 04:10:18;;;;;;;8.87;8.10;;;28.80;47.20;;;;;;5073666;28;20417;-79
2022/07/25 04:12:47;;;;;;;9.80;8.90;;;28.70;47.20;;;;;;5073946;28;20454;-80
2022/07/25 04:15:15;;;;;;;8.50;7.80;;;28.80;47.30;;;;;;5074567;28;20416;-80
2022/07/25 04:17:43;;;;;;;9.80;7.40;;;28.70;47.20;;;;;;5091952;28;20413;-80
2022/07/25 04:20:10;;;;;;;8.40;7.70;;;28.70;47.20;;;;;;5073035;28;20439;-80
2022/07/25 04:22:38;;;;;;;10.47;8.70;;;28.80;47.20;;;;;;5074396;28;20408;-80
2022/07/25 04:25:08;;;;;;;8.60;7.87;;;28.70;47.20;;;;;;5073967;28;20468;-81
2022/07/25 04:27:35;;;;;;;9.13;8.33;;;28.80;47.20;;;;;;5074089;28;20440;-81
2022/07/25 04:30:07;;;;;;;9.60;8.80;;;28.80;47.20;;;;;;5107316;28;20437;-81
2022/07/25 04:32:35;;;;;;;8.67;7.87;;;28.80;47.30;;;;;;5056672;28;20425;-80
2022/07/25 04:35:08;;;;;;;9.50;8.70;;;28.80;47.30;;;;;;5070167;28;20432;-82
2022/07/25 04:37:38;;;;;;;9.07;8.17;;;28.80;47.20;;;;;;5073613;28;20439;-81
2022/07/25 04:40:05;;;;;;;9.67;8.77;;;28.80;47.20;;;;;;5069811;28;20432;-81
2022/07/25 04:42:32;;;;;;;9.53;8.03;;;28.80;47.20;;;;;;5104553;28;20428;-82
2022/07/25 04:45:42;;;;;;;9.60;8.50;;;28.80;47.20;;;;;;5075115;28;20512;-82
2022/07/25 04:48:15;;;;;;;10.03;9.03;;;28.80;47.20;;;;;;5074876;28;20401;-83
2022/07/25 04:50:48;;;;;;;9.47;8.57;;;28.80;47.20;;;;;;5093955;28;20393;-82
2022/07/25 04:53:26;;;;;;;8.40;7.70;;;28.80;47.20;;;;;;5089957;28;20434;-82
2022/07/25 04:56:05;;;;;;;10.23;9.33;;;28.80;47.20;;;;;;5079780;28;20416;-83
2022/07/25 04:58:39;;;;;;;8.67;7.97;;;28.80;47.20;;;;;;5080378;28;20412;-82
2022/07/25 05:07:49;;;;;;;8.90;8.10;;;28.80;47.20;;;;;;4996973;28;20506;-82
2022/07/25 05:10:33;;;;;;;9.17;8.47;;;28.80;47.30;;;;;;4997218;28;20416;-81
2022/07/25 05:13:01;;;;;;;8.90;8.10;;;28.80;47.30;;;;;;4964140;28;20441;-82
2022/07/25 05:15:30;;;;;;;8.97;8.13;;;28.80;47.40;;;;;;4980414;28;20405;-81
2022/07/25 05:18:07;;;;;;;8.27;7.57;;;28.80;47.40;;;;;;4980648;28;20421;-82
2022/07/25 05:20:36;;;;;;;9.20;8.40;;;28.80;47.40;;;;;;4980902;28;20421;-82
2022/07/25 05:23:08;;;;;;;9.03;7.97;;;28.80;47.30;;;;;;4980206;28;20441;-82
2022/07/25 05:26:01;;;;;;;9.00;8.17;;;28.80;47.30;;;;;;4996453;28;20471;-82
2022/07/25 05:28:30;;;;;;;9.30;8.37;;;28.80;47.30;;;;;;4974080;28;20499;-82
2022/07/25 05:31:00;;;;;;;8.90;7.83;;;28.90;47.40;;;;;;4995998;28;20423;-82
2022/07/25 05:33:27;;;;;;;8.03;7.37;;;28.90;47.40;;;;;;4970407;28;20437;-82
2022/07/25 05:36:02;;;;;;;7.43;6.83;;;28.90;47.30;;;;;;5079483;28;20420;-82
2022/07/25 05:38:38;;;;;;;8.43;7.73;;;28.90;47.30;;;;;;5096644;28;20427;-82
2022/07/25 05:41:07;;;;;;;9.00;8.20;;;28.90;47.30;;;;;;5079386;28;20409;-82
2022/07/25 05:43:39;;;;;;;8.47;7.77;;;28.90;47.30;;;;;;5087957;28;20417;-82
2022/07/25 05:46:14;;;;;;;10.70;8.40;;;28.90;47.30;;;;;;5077497;28;20464;-81
2022/07/25 05:48:43;;;;;;;9.40;8.70;;;28.90;47.30;;;;;;5095386;28;20408;-82
2022/07/25 05:51:24;;;;;;;8.70;8.00;;;28.90;47.30;;;;;;5079540;28;20401;-82
2022/07/25 05:53:50;;;;;;;8.63;7.83;;;28.90;47.30;;;;;;5063097;28;20452;-82
2022/07/25 05:56:21;;;;;;;9.70;8.80;;;28.90;47.30;;;;;;5061100;28;20425;-82
2022/07/25 05:58:50;;;;;;;9.70;8.80;;;28.90;47.40;;;;;;5096364;28;20412;-82
2022/07/25 06:01:18;;;;;;;10.50;8.50;;;28.90;47.40;;;;;;5061945;28;20396;-82
2022/07/25 06:03:45;;;;;;;8.63;7.83;;;28.90;47.30;;;;;;5077000;28;20417;-82
2022/07/25 06:06:18;;;;;;;8.87;8.10;;;28.90;47.40;;;;;;5077771;28;20452;-82
2022/07/25 06:08:45;;;;;;;9.30;8.50;;;28.90;47.40;;;;;;5095686;28;20401;-81
2022/07/25 06:11:11;;;;;;;10.37;9.37;;;28.90;47.50;;;;;;5074594;28;20413;-81
2022/07/25 06:13:39;;;;;;;9.20;8.40;;;28.90;47.50;;;;;;5092087;28;20405;-80
2022/07/25 06:16:11;;;;;;;9.80;8.97;;;28.90;47.50;;;;;;5074135;28;20201;-80
2022/07/25 06:18:37;;;;;;;11.53;8.97;;;28.90;47.50;;;;;;5074428;28;20402;-80
2022/07/25 06:21:06;;;;;;;9.53;8.60;;;28.90;47.50;;;;;;5074101;28;20428;-82
2022/07/25 06:23:33;;;;;;;8.77;7.97;;;28.90;47.50;;;;;;5074238;28;20444;-81
2022/07/25 06:26:10;;;;;;;9.00;8.20;;;28.90;47.60;;;;;;5091224;28;20457;-82
2022/07/25 06:28:47;;;;;;;9.30;8.50;;;28.90;47.60;;;;;;5074061;28;20412;-82
2022/07/25 06:31:19;;;;;;;9.67;8.70;;;28.90;47.50;;;;;;5072778;28;20413;-80
2022/07/25 06:33:45;;;;;;;9.20;8.40;;;28.90;47.50;;;;;;5091368;28;20404;-81
2022/07/25 06:36:11;;;;;;;8.57;7.87;;;28.90;47.50;;;;;;5091507;28;20489;-81
2022/07/25 06:38:45;;;;;;;8.77;8.03;;;28.90;47.50;;;;;;5074213;28;20424;-80
2022/07/25 06:41:20;;;;;;;9.10;8.20;;;28.90;47.50;;;;;;5073294;28;20403;-81
2022/07/25 06:43:46;;;;;;;9.97;9.07;;;28.90;47.50;;;;;;5090713;28;20412;-81
2022/07/25 06:46:18;;;;;;;8.87;8.10;;;28.90;47.50;;;;;;5073352;28;20476;-80
2022/07/25 06:48:44;;;;;;;8.63;7.87;;;28.90;47.50;;;;;;5091040;28;20397;-80
2022/07/25 06:51:10;;;;;;;9.57;8.57;;;29.00;47.60;;;;;;5073173;28;20412;-81
2022/07/25 06:53:36;;;;;;;8.70;8.00;;;28.90;47.50;;;;;;5090448;28;20404;-81
2022/07/25 06:56:15;;;;;;;8.70;7.87;;;28.90;47.50;;;;;;5072702;28;20412;-82
2022/07/25 06:58:57;;;;;;;8.17;7.43;;;28.90;47.50;;;;;;5073328;28;20276;-82
2022/07/25 07:11:36;;;;;;;8.30;7.60;;;28.90;47.20;;;;;;5009141;28;20466;-81
2022/07/25 07:14:14;;;;;;;8.23;7.50;;;28.90;47.30;;;;;;5008637;28;20408;-81
2022/07/25 07:16:41;;;;;;;9.10;7.70;;;28.90;47.40;;;;;;4991356;28;20420;-81
2022/07/25 07:19:09;;;;;;;8.13;7.43;;;28.90;47.40;;;;;;5009150;28;20420;-81
2022/07/25 07:21:38;;;;;;;8.20;7.40;;;28.90;47.40;;;;;;5008075;28;20470;-80
2022/07/25 07:24:06;;;;;;;8.00;7.30;;;28.90;47.40;;;;;;5008681;28;20451;-81
2022/07/25 07:26:32;;;;;;;8.23;7.43;;;29.00;47.30;;;;;;5006932;28;20455;-80
2022/07/25 07:29:16;;;;;;;10.13;7.13;;;29.00;47.30;;;;;;5011849;28;20411;-80
2022/07/25 07:31:42;;;;;;;8.90;8.10;;;29.00;47.30;;;;;;5011963;28;20412;-81
2022/07/25 07:34:10;;;;;;;7.80;7.20;;;29.00;47.30;;;;;;5012049;28;20426;-81
2022/07/25 07:36:36;;;;;;;8.60;7.73;;;29.00;47.30;;;;;;5011501;28;20189;-81
2022/07/25 07:39:02;;;;;;;8.40;7.70;;;29.00;47.30;;;;;;5011842;28;20439;-81
2022/07/25 07:41:31;;;;;;;8.50;7.80;;;29.00;47.30;;;;;;5011499;28;20188;-80
2022/07/25 07:44:11;;;;;;;8.07;7.37;;;29.00;47.20;;;;;;5010669;28;20415;-83
2022/07/25 07:46:42;;;;;;;7.97;7.27;;;29.00;47.20;;;;;;5027856;28;20516;-80
2022/07/25 07:49:08;;;;;;;10.50;7.70;;;29.00;47.20;;;;;;5010706;28;20420;-80
2022/07/25 07:51:34;;;;;;;8.70;7.90;;;29.00;47.20;;;;;;5054307;28;20412;-80
2022/07/25 07:56:47;;;;;;;8.10;7.30;;;29.00;47.00;;;;;;5089080;28;20203;-79
2022/07/25 07:59:13;;;;;;;8.87;7.80;;;29.00;47.10;;;;;;5071592;28;20861;-80
2022/07/25 08:01:42;;;;;;;7.90;7.20;;;29.00;47.00;;;;;;5088793;28;20433;-80
2022/07/25 08:04:10;;;;;;;8.33;7.40;;;29.00;47.00;;;;;;5054537;28;20492;-80
2022/07/25 08:06:36;;;;;;;8.33;7.53;;;29.10;47.00;;;;;;5089060;28;20449;-80
2022/07/25 08:09:02;;;;;;;8.10;7.50;;;29.00;46.90;;;;;;5071052;28;20424;-80
2022/07/25 08:11:28;;;;;;;8.27;6.90;;;29.10;47.00;;;;;;5089083;28;20178;-80
2022/07/25 08:13:56;;;;;;;8.00;7.30;;;29.10;46.90;;;;;;5072283;28;20476;-79
2022/07/25 08:16:22;;;;;;;7.90;7.30;;;29.10;46.80;;;;;;5072815;28;20178;-79
2022/07/25 08:18:51;;;;;;;9.10;8.07;;;29.10;46.70;;;;;;5071430;28;20451;-79
2022/07/25 08:21:21;;;;;;;7.60;7.00;;;29.10;46.70;;;;;;5090192;28;20178;-79
2022/07/25 08:23:48;;;;;;;8.30;7.50;;;29.10;46.70;;;;;;5071542;28;20444;-80
2022/07/25 08:26:14;;;;;;;8.23;7.10;;;29.10;46.60;;;;;;5072030;28;20455;-78
2022/07/25 08:28:43;;;;;;;7.70;7.00;;;29.10;46.60;;;;;;5071981;28;20443;-81
2022/07/25 08:31:09;;;;;;;7.70;7.00;;;29.10;46.60;;;;;;5075249;28;20419;-80
2022/07/25 08:33:35;;;;;;;7.40;6.80;;;29.10;46.60;;;;;;5076905;28;20412;-81
2022/07/25 08:36:06;;;;;;;7.67;6.97;;;29.10;46.70;;;;;;5075929;28;20269;-81
2022/07/25 08:38:34;;;;;;;9.00;8.10;;;29.10;46.70;;;;;;5076650;28;20439;-81
2022/07/25 08:41:07;;;;;;;8.20;7.40;;;29.10;46.70;;;;;;5075898;28;20421;-81
2022/07/25 08:46:59;;;;;;;8.00;7.37;;;29.10;46.70;;;;;;5093997;28;20399;-82
2022/07/25 08:49:27;;;;;;;7.87;7.17;;;29.10;46.70;;;;;;5076264;28;20468;-80
2022/07/25 08:51:56;;;;;;;8.57;7.77;;;29.10;46.60;;;;;;5059245;28;20484;-80
2022/07/25 08:54:32;;;;;;;7.77;7.00;;;29.10;46.60;;;;;;5075094;28;20454;-80
2022/07/25 08:56:58;;;;;;;7.13;6.53;;;29.10;46.60;;;;;;5075168;28;20404;-82
2022/07/25 08:59:24;;;;;;;7.90;7.20;;;29.10;46.60;;;;;;5093037;28;20460;-81
2022/07/25 09:01:51;;;;;;;8.30;7.60;;;29.10;46.50;;;;;;5074932;28;20404;-80
2022/07/25 09:04:23;;;;;;;8.17;7.40;;;29.10;46.50;;;;;;5073994;28;20408;-80
2022/07/25 09:06:54;;;;;;;7.97;7.17;;;29.20;46.40;;;;;;5074462;28;20519;-80
2022/07/25 09:09:29;;;;;;;8.30;7.50;;;29.10;46.40;;;;;;5092802;28;20413;-80
2022/07/25 09:11:58;;;;;;;9.70;7.80;;;29.20;46.40;;;;;;5075201;28;20419;-80
2022/07/25 09:14:25;;;;;;;7.23;6.53;;;29.10;46.30;;;;;;5074582;28;20724;-81
2022/07/25 09:16:54;;;;;;;8.50;7.80;;;29.10;46.30;;;;;;5073352;28;20416;-81
2022/07/25 09:19:23;;;;;;;9.63;7.80;;;29.10;46.30;;;;;;5072351;28;20430;-82
2022/07/25 09:22:10;;;;;;;8.37;7.60;;;29.20;46.40;;;;;;5072551;28;20408;-81
2022/07/25 09:24:43;;;;;;;7.57;6.73;;;29.20;46.30;;;;;;5073312;28;20408;-80
2022/07/25 09:27:13;;;;;;;8.57;7.80;;;29.20;46.20;;;;;;5072553;28;20397;-80
2022/07/25 09:29:44;;;;;;;8.10;7.40;;;29.20;46.10;;;;;;5056414;28;20414;-81
2022/07/25 09:32:26;;;;;;;7.80;7.03;;;29.20;46.10;;;;;;5072553;28;20440;-80
2022/07/25 09:34:55;;;;;;;9.00;8.00;;;29.20;46.00;;;;;;5073776;28;20429;-81
2022/07/25 09:37:27;;;;;;;8.83;7.80;;;29.20;46.00;;;;;;5067405;28;20432;-81
2022/07/25 09:39:55;;;;;;;8.00;7.07;;;29.20;45.90;;;;;;5072644;28;20473;-81
2022/07/25 09:42:30;;;;;;;7.27;6.60;;;29.20;46.00;;;;;;5089487;28;20459;-82
2022/07/25 09:45:16;;;;;;;7.60;6.77;;;29.20;45.90;;;;;;5074103;28;20809;-81
2022/07/25 09:48:03;;;;;;;8.40;7.60;;;29.20;45.90;;;;;;5091707;28;20409;-81
2022/07/25 09:50:38;;;;;;;7.60;6.90;;;29.20;46.10;;;;;;5073951;28;20480;-81
2022/07/25 09:53:08;;;;;;;9.20;6.87;;;29.20;46.60;;;;;;5074130;28;20434;-81
2022/07/25 09:55:46;;;;;;;7.60;7.00;;;29.20;46.00;;;;;;5073785;28;20428;-81
2022/07/25 09:58:23;;;;;;;9.10;8.30;;;29.20;46.00;;;;;;5073530;28;20915;-81
2022/07/25 10:00:50;;;;;;;8.00;7.30;;;29.20;46.00;;;;;;5073761;28;20417;-80
2022/07/25 10:03:35;;;;;;;8.50;7.70;;;29.20;46.00;;;;;;5073560;28;20413;-80
2022/07/25 10:06:19;;;;;;;8.53;7.73;;;29.30;45.90;;;;;;5073016;28;20452;-80
2022/07/25 10:08:53;;;;;;;7.47;6.77;;;29.30;45.90;;;;;;5073125;28;20404;-80
2022/07/25 10:11:21;;;;;;;7.67;6.97;;;29.20;45.90;;;;;;5073366;28;20404;-80
2022/07/25 10:14:08;;;;;;;7.47;6.83;;;29.20;45.90;;;;;;5057688;28;20405;-80
2022/07/25 10:16:47;;;;;;;9.00;8.20;;;29.30;45.80;;;;;;5073702;28;20462;-80
2022/07/25 10:19:18;;;;;;;8.60;7.80;;;29.30;45.70;;;;;;5056920;28;20447;-81
2022/07/25 10:21:54;;;;;;;8.70;8.00;;;29.30;45.80;;;;;;5073280;28;20405;-81
2022/07/25 10:24:20;;;;;;;8.30;7.60;;;29.30;45.70;;;;;;5073957;28;20401;-81
2022/07/25 10:26:54;;;;;;;12.57;8.30;;;29.30;45.70;;;;;;5072927;28;20452;-80
2022/07/25 10:29:20;;;;;;;10.00;7.63;;;29.30;45.80;;;;;;5072974;28;20174;-81
2022/07/25 10:31:47;;;;;;;8.27;7.57;;;29.30;45.80;;;;;;5072932;28;20409;-80
2022/07/25 10:34:15;;;;;;;8.13;7.43;;;29.30;45.90;;;;;;5072687;28;20413;-81
2022/07/25 10:36:49;;;;;;;9.23;8.43;;;29.30;45.80;;;;;;5091096;28;20407;-80
2022/07/25 10:40:01;;;;;;;7.90;7.20;;;29.30;45.80;;;;;;5072755;28;20430;-80
2022/07/25 10:42:52;;;;;;;9.43;8.13;;;29.30;45.80;;;;;;5077647;28;20425;-81
2022/07/25 10:45:25;;;;;;;8.00;7.30;;;29.30;45.90;;;;;;5072309;28;20452;-81
2022/07/25 10:48:09;;;;;;;9.30;8.47;;;29.30;45.90;;;;;;5074152;28;20872;-81
2022/07/25 10:51:08;;;;;;;17.97;11.20;;;29.30;45.90;;;;;;5073031;28;20470;-81
2022/07/25 10:53:55;;;;;;;;;;;;;;;;;;;;;
2022/07/25 10:56:25;;;;;;;23.20;13.50;;;29.30;45.90;;;;;;5089985;28;20447;-80
2022/07/25 10:58:54;;;;;;;27.70;14.60;;;29.30;45.90;;;;;;5088913;28;20424;-80
2022/07/25 11:01:31;;;;;;;29.77;17.33;;;29.30;45.90;;;;;;5089594;28;20413;-81
2022/07/25 11:06:51;;;;;;;42.90;25.73;;;29.40;46.00;;;;;;5090518;28;20460;-80
2022/07/25 11:09:21;;;;;;;71.57;35.90;;;29.30;46.00;;;;;;5086827;28;20409;-80
2022/07/25 11:11:52;;;;;;;64.23;36.57;;;29.30;46.00;;;;;;5072143;28;20835;-81
2022/07/25 11:14:19;;;;;;;89.80;43.50;;;29.40;46.00;;;;;;5071542;28;20447;-80
2022/07/25 11:16:48;;;;;;;111.60;50.53;;;29.30;46.00;;;;;;5072029;28;20512;-80
2022/07/25 11:19:28;;;;;;;73.73;46.40;;;29.30;46.00;;;;;;5072679;28;20423;-81
2022/07/25 11:21:58;;;;;;;74.30;46.93;;;29.40;46.10;;;;;;5087773;28;20428;-79
2022/07/25 11:24:44;;;;;;;83.97;47.27;;;29.40;46.10;;;;;;5088371;28;20416;-80
2022/07/25 11:27:27;;;;;;;76.97;47.13;;;29.40;46.20;;;;;;5087586;28;20412;-80
2022/07/25 11:30:05;;;;;;;70.50;38.40;;;29.40;46.20;;;;;;5088507;28;20405;-81
2022/07/25 11:33:00;;;;;;;56.40;37.70;;;29.40;46.10;;;;;;5087218;28;20413;-80
2022/07/25 11:35:34;;;;;;;58.67;35.57;;;29.40;46.10;;;;;;5087481;28;20404;-80
2022/07/25 11:38:01;;;;;;;57.73;33.57;;;29.40;46.10;;;;;;5087538;28;20440;-79
2022/07/25 11:40:27;;;;;;;52.43;33.73;;;29.40;46.10;;;;;;5088720;28;20409;-79
2022/07/25 11:43:08;;;;;;;45.20;27.67;;;29.40;46.10;;;;;;5069775;28;20448;-79
2022/07/25 11:45:35;;;;;;;52.00;33.10;;;29.40;46.00;;;;;;5086467;28;20456;-79
2022/07/25 11:48:07;;;;;;;43.07;30.57;;;29.40;46.10;;;;;;5087992;28;20405;-80
2022/07/25 11:50:55;;;;;;;42.50;27.27;;;29.40;46.20;;;;;;5071018;28;20875;-80
2022/07/25 11:53:28;;;;;;;39.03;26.00;;;29.40;46.20;;;;;;5070021;28;20465;-79
2022/07/25 11:56:12;;;;;;;33.83;22.40;;;29.50;46.20;;;;;;5070628;28;20437;-78
2022/07/25 11:58:37;;;;;;;38.67;21.97;;;29.50;46.20;;;;;;5087623;28;20713;-78
2022/07/25 12:01:11;;;;;;;30.13;19.43;;;29.40;46.10;;;;;;5086557;28;20421;-80
2022/07/25 12:03:44;;;;;;;21.37;18.03;;;29.40;46.10;;;;;;5086345;28;20482;-79
2022/07/25 12:06:13;;;;;;;23.13;16.60;;;29.50;46.10;;;;;;5087448;28;20524;-79
2022/07/25 12:08:41;;;;;;;28.20;17.00;;;29.50;46.10;;;;;;5086466;28;20413;-80
2022/07/25 12:11:21;;;;;;;20.13;16.97;;;29.50;46.00;;;;;;5053529;28;20446;-79
2022/07/25 12:13:48;;;;;;;21.70;15.13;;;29.50;46.00;;;;;;5070562;28;20420;-80
2022/07/25 12:16:15;;;;;;;17.23;14.47;;;29.50;46.00;;;;;;5070231;28;20848;-80
2022/07/25 12:18:42;;;;;;;19.77;14.83;;;29.50;46.10;;;;;;5086998;28;20431;-82
2022/07/25 12:21:18;;;;;;;15.90;13.70;;;29.50;46.00;;;;;;5086973;28;20440;-80
2022/07/25 12:23:52;;;;;;;16.03;12.53;;;29.50;46.00;;;;;;5086817;28;20424;-79
2022/07/25 12:26:23;;;;;;;12.83;11.43;;;29.50;45.90;;;;;;5070150;28;20456;-79
2022/07/25 12:28:49;;;;;;;13.30;11.90;;;29.50;45.90;;;;;;5069808;28;20472;-80
2022/07/25 12:31:15;;;;;;;12.97;10.40;;;29.50;45.90;;;;;;5087522;28;20411;-80
2022/07/25 12:33:41;;;;;;;12.30;10.37;;;29.50;45.80;;;;;;5070095;28;20439;-79
2022/07/25 12:36:10;;;;;;;10.80;9.70;;;29.50;45.70;;;;;;5070022;28;20413;-80
2022/07/25 12:38:36;;;;;;;10.53;9.40;;;29.50;45.50;;;;;;5070198;28;20444;-79
2022/07/25 12:41:25;;;;;;;11.27;9.33;;;29.50;45.50;;;;;;5087853;28;20412;-78
2022/07/25 12:43:56;;;;;;;11.50;9.97;;;29.60;45.40;;;;;;5070404;28;20181;-79
2022/07/25 12:46:22;;;;;;;11.33;9.33;;;29.50;45.40;;;;;;5069837;28;20463;-79
2022/07/25 12:48:48;;;;;;;12.70;9.70;;;29.50;45.50;;;;;;5070434;28;20768;-80
2022/07/25 12:51:14;;;;;;;10.57;9.30;;;29.50;45.60;;;;;;5069802;28;20412;-80
2022/07/25 12:53:42;;;;;;;10.27;9.17;;;29.50;45.60;;;;;;5069577;28;20850;-80
2022/07/25 12:56:59;;;;;;;;;;;;;;;;;;;;;
2022/07/25 12:59:25;;;;;;;9.13;8.23;;;29.60;45.50;;;;;;5069224;28;20460;-80
2022/07/25 13:02:01;;;;;;;9.43;8.53;;;29.50;45.40;;;;;;5069264;28;20425;-80
2022/07/25 13:04:27;;;;;;;10.67;8.80;;;29.60;45.10;;;;;;5069400;28;20416;-80
2022/07/25 13:07:05;;;;;;;8.80;7.90;;;29.50;45.00;;;;;;5069114;28;20452;-80
2022/07/25 13:09:32;;;;;;;8.50;7.77;;;29.60;45.20;;;;;;5069926;28;20409;-80
2022/07/25 13:12:03;;;;;;;8.47;7.67;;;29.60;45.10;;;;;;5068827;28;20839;-80
2022/07/25 13:14:42;;;;;;;8.37;7.50;;;29.60;45.00;;;;;;5069273;28;20409;-81
2022/07/25 13:17:11;;;;;;;8.00;7.20;;;29.60;45.10;;;;;;5073712;28;20408;-80
2022/07/25 13:19:56;;;;;;;7.60;6.90;;;29.60;45.00;;;;;;5073069;28;20439;-80
2022/07/25 13:22:28;;;;;;;8.17;7.37;;;29.60;45.00;;;;;;5090733;28;20389;-79
2022/07/25 13:25:24;;;;;;;9.47;7.47;;;29.60;45.10;;;;;;5072092;28;20491;-80
2022/07/25 13:27:50;;;;;;;8.40;7.60;;;29.60;45.30;;;;;;5072939;28;20409;-80
2022/07/25 13:30:16;;;;;;;9.27;8.47;;;29.50;45.20;;;;;;5090920;28;20415;-80
2022/07/25 13:36:08;;;;;;;7.73;7.00;;;29.50;44.90;;;;;;5090496;28;20211;-80
2022/07/25 13:38:34;;;;;;;6.83;6.17;;;29.50;44.70;;;;;;5089988;28;20420;-81
2022/07/25 13:41:01;;;;;;;7.17;6.50;;;29.50;44.70;;;;;;5072963;28;20404;-81
2022/07/25 13:43:27;;;;;;;7.63;6.73;;;29.50;44.60;;;;;;5073080;28;20419;-80